KMFD/MFD METAR and TAF weather

Enter ICAO airport designator
Station Type Date Time Source
KMFD METAR 2019/06/16 19:52 UTC NOAA

KMFD 161952Z 23016G25KT 10SM FEW028 24/19 A2987 RMK AO2 SLP106 T02440189


Station Type Date Time Source
KMFD Decoded METAR 2019/06/16 19:52 UTC NOAA

LAHM MUNICIPAL AIRPORT, OH, United States (KMFD) 40-49N 082-31W 395M
Jun 16, 2019 - 03:52 PM EDT / 2019.06.16 1952 UTC
Wind: from the SW (230 degrees) at 18 MPH (16 KT) gusting to 29 MPH (25 KT):0
Visibility: 10 mile(s):0
Sky conditions: mostly clear
Temperature: 75.9 F (24.4 C)
Dew Point: 66.0 F (18.9 C)
Relative Humidity: 71%
Pressure (altimeter): 29.87 in. Hg (1011 hPa)
ob: KMFD 161952Z 23016G25KT 10SM FEW028 24/19 A2987 RMK AO2 SLP106 T02440189
cycle: 20

Station Type Date Time Source
KMFD TAF 2019/06/16 18:42 UTC NOAA

TAF KMFD 161741Z 1618/1718 24012G20KT P6SM SCT015 OVC025
FM162000 30008KT P6SM VCSH OVC015
TEMPO 1622/1701 4SM -SHRA BR
FM170400 05006KT P6SM OVC015
FM170600 VRB03KT 2SM BR OVC007
FM171500 10007KT P6SM OVC015

Example: see airport list